createdAt,value
2022-09-25T00:02:14.610Z,9.80
2022-09-25T00:07:22.360Z,9.80
2022-09-25T00:12:31.333Z,9.80
2022-09-25T00:17:34.593Z,9.70
2022-09-25T00:22:41.015Z,9.60
2022-09-25T00:27:48.366Z,9.40
2022-09-25T00:32:51.509Z,9.30
2022-09-25T00:37:57.847Z,9.30
2022-09-25T00:43:07.298Z,9.20
2022-09-25T00:48:13.198Z,9.00
2022-09-25T00:53:21.879Z,8.90
2022-09-25T00:58:29.002Z,8.90
2022-09-25T01:03:32.276Z,9.00
2022-09-25T01:08:41.484Z,9.10
2022-09-25T01:13:44.750Z,9.10
2022-09-25T01:19:08.054Z,9.10
2022-09-25T01:24:36.059Z,9.00
2022-09-25T01:29:44.237Z,8.90
2022-09-25T01:34:55.811Z,8.70
2022-09-25T01:40:12.215Z,8.60
2022-09-25T01:45:21.227Z,8.40
2022-09-25T01:50:34.700Z,8.40
2022-09-25T01:55:43.466Z,8.50
2022-09-25T02:00:56.876Z,8.50
2022-09-25T02:06:03.672Z,8.40
2022-09-25T02:11:08.146Z,8.30
2022-09-25T02:16:18.173Z,8.30
2022-09-25T02:21:38.804Z,8.30
2022-09-25T02:26:42.289Z,8.40
2022-09-25T02:31:51.084Z,8.50
2022-09-25T02:36:54.216Z,8.50
2022-09-25T02:42:16.307Z,8.50
2022-09-25T02:47:34.762Z,8.50
2022-09-25T02:52:45.417Z,8.60
2022-09-25T02:57:58.064Z,8.60
2022-09-25T03:03:04.014Z,8.70
2022-09-25T03:13:58.314Z,8.80
2022-09-25T03:19:07.376Z,8.90
2022-09-25T03:24:11.293Z,9.00
2022-09-25T03:29:14.889Z,9.00
2022-09-25T03:34:21.609Z,9.10
2022-09-25T03:39:25.010Z,9.10
2022-09-25T03:44:28.126Z,9.10
2022-09-25T03:49:41.803Z,9.10
2022-09-25T03:54:45.108Z,9.10
2022-09-25T03:59:48.226Z,9.10
2022-09-25T04:04:55.087Z,9.10
2022-09-25T04:09:58.249Z,9.10
2022-09-25T04:15:02.222Z,9.20
2022-09-25T04:20:12.053Z,9.10
2022-09-25T04:25:16.846Z,9.10
2022-09-25T04:30:23.016Z,8.90
2022-09-25T04:35:27.701Z,8.90
2022-09-25T04:40:42.174Z,8.90
2022-09-25T04:45:47.296Z,8.90
2022-09-25T04:50:53.024Z,8.90
2022-09-25T04:56:01.297Z,9.00
2022-09-25T05:01:05.219Z,9.00
2022-09-25T05:06:09.934Z,9.10
2022-09-25T05:11:13.603Z,9.10
2022-09-25T05:16:16.859Z,9.10
2022-09-25T05:21:25.632Z,9.20
2022-09-25T05:26:30.315Z,9.20
2022-09-25T05:31:33.718Z,9.30
2022-09-25T05:36:38.251Z,9.30
2022-09-25T05:41:41.419Z,9.30
2022-09-25T05:46:44.632Z,9.30
2022-09-25T05:51:49.241Z,9.40
2022-09-25T05:56:53.773Z,9.40
2022-09-25T06:01:57.067Z,9.40
2022-09-25T06:07:02.250Z,9.40
2022-09-25T06:12:06.723Z,9.40
2022-09-25T06:17:09.962Z,9.50
2022-09-25T06:22:14.501Z,9.60
2022-09-25T06:27:17.632Z,9.90
2022-09-25T06:32:23.349Z,10.40
2022-09-25T06:37:27.958Z,10.60
2022-09-25T06:42:31.041Z,10.70
2022-09-25T06:47:37.681Z,11.00
2022-09-25T06:52:44.778Z,11.40
2022-09-25T06:57:48.042Z,11.80
2022-09-25T07:03:08.883Z,12.10
2022-09-25T07:08:14.768Z,12.40
2022-09-25T07:13:18.613Z,12.90
2022-09-25T07:18:22.224Z,13.50
2022-09-25T07:23:26.708Z,13.70
2022-09-25T07:28:29.866Z,13.50
2022-09-25T07:33:37.060Z,13.20
2022-09-25T07:38:42.649Z,12.90
2022-09-25T07:43:46.007Z,12.80
2022-09-25T07:48:50.425Z,12.80
2022-09-25T07:53:55.036Z,12.90
2022-09-25T07:58:58.329Z,12.90
2022-09-25T08:04:02.912Z,13.00
2022-09-25T08:09:10.598Z,13.10
2022-09-25T08:14:15.902Z,13.10
2022-09-25T08:19:21.176Z,13.00
2022-09-25T08:24:26.784Z,13.30
2022-09-25T08:29:31.013Z,13.40
2022-09-25T08:34:41.031Z,13.70
2022-09-25T08:39:52.615Z,14.40
2022-09-25T08:45:26.886Z,15.00
2022-09-25T08:50:30.801Z,14.80
2022-09-25T08:55:55.495Z,14.50
2022-09-25T09:01:01.814Z,14.20
2022-09-25T09:06:08.890Z,14.20
2022-09-25T09:11:17.009Z,14.30
2022-09-25T09:16:28.594Z,14.50
2022-09-25T09:21:36.963Z,14.50
2022-09-25T09:27:04.532Z,14.60
2022-09-25T09:32:25.209Z,15.20
2022-09-25T09:37:36.274Z,16.50
2022-09-25T09:42:48.224Z,16.80
2022-09-25T09:48:02.469Z,16.80
2022-09-25T09:53:14.100Z,17.20
2022-09-25T09:58:25.312Z,17.70
2022-09-25T10:03:31.860Z,17.60
2022-09-25T10:08:36.145Z,17.50
2022-09-25T10:19:19.405Z,18.60
2022-09-25T10:24:49.863Z,18.70
2022-09-25T10:30:10.969Z,18.50
2022-09-25T10:35:21.419Z,18.20
2022-09-25T10:40:31.664Z,18.10
2022-09-25T10:45:40.677Z,18.10
2022-09-25T10:50:44.741Z,17.40
2022-09-25T10:55:54.809Z,17.00
2022-09-25T11:01:02.453Z,17.20
2022-09-25T11:06:09.289Z,17.40
2022-09-25T11:11:14.194Z,17.50
2022-09-25T11:16:19.823Z,17.50
2022-09-25T11:21:28.960Z,16.70
2022-09-25T11:26:35.517Z,16.20
2022-09-25T11:31:43.846Z,15.90
2022-09-25T11:36:50.495Z,15.50
2022-09-25T11:42:00.429Z,15.10
2022-09-25T11:47:11.630Z,14.70
2022-09-25T11:58:01.044Z,14.30
2022-09-25T12:03:27.028Z,14.10
2022-09-25T12:08:47.655Z,14.00
2022-09-25T12:13:59.975Z,14.30
2022-09-25T12:19:19.419Z,14.80
2022-09-25T12:24:36.035Z,15.40
2022-09-25T12:30:06.892Z,15.80
2022-09-25T12:35:28.076Z,16.20
2022-09-25T12:40:37.761Z,16.50
2022-09-25T12:45:45.585Z,16.70
2022-09-25T12:50:58.561Z,16.70
2022-09-25T12:56:13.710Z,16.80
2022-09-25T13:01:24.762Z,17.00
2022-09-25T13:06:40.636Z,16.90
2022-09-25T13:11:47.570Z,17.30
2022-09-25T13:16:51.116Z,17.40
2022-09-25T13:22:02.806Z,17.40
2022-09-25T13:27:07.122Z,17.00
2022-09-25T13:32:19.993Z,16.90
2022-09-25T13:37:31.661Z,16.70
2022-09-25T13:42:39.062Z,16.70
2022-09-25T13:48:07.250Z,16.80
2022-09-25T13:53:32.259Z,16.90
2022-09-25T13:59:03.047Z,16.80
2022-09-25T14:04:11.310Z,16.80
2022-09-25T14:09:17.812Z,16.80
2022-09-25T14:14:28.897Z,16.90
2022-09-25T14:19:34.118Z,17.20
2022-09-25T14:24:45.330Z,17.20
2022-09-25T14:29:48.589Z,17.60
2022-09-25T14:35:05.551Z,17.50
2022-09-25T14:40:20.986Z,17.40
2022-09-25T14:45:59.165Z,17.30
2022-09-25T14:51:05.915Z,17.20
2022-09-25T14:56:14.886Z,16.60
2022-09-25T15:01:30.427Z,16.10
2022-09-25T15:06:35.514Z,15.60
2022-09-25T15:11:44.717Z,15.40
2022-09-25T15:17:06.683Z,15.30
2022-09-25T15:22:13.903Z,15.20
2022-09-25T15:32:50.583Z,15.10
2022-09-25T15:38:05.741Z,15.20
2022-09-25T15:43:14.771Z,15.50
2022-09-25T15:48:25.837Z,15.50
2022-09-25T15:53:31.082Z,15.60
2022-09-25T15:58:43.900Z,15.50
2022-09-25T16:04:10.753Z,15.30
2022-09-25T16:09:31.701Z,15.00
2022-09-25T16:14:36.717Z,14.80
2022-09-25T16:19:42.634Z,14.70
2022-09-25T16:24:52.004Z,14.60
2022-09-25T16:30:03.473Z,14.60
2022-09-25T16:35:07.963Z,14.50
2022-09-25T16:40:22.921Z,14.40
2022-09-25T16:45:29.865Z,14.30
2022-09-25T16:50:39.548Z,14.10
2022-09-25T16:55:53.387Z,13.90
2022-09-25T17:00:59.012Z,13.80
2022-09-25T17:06:02.477Z,13.60
2022-09-25T17:11:06.238Z,13.60
2022-09-25T17:16:11.355Z,13.50
2022-09-25T17:21:16.323Z,13.50
2022-09-25T17:26:22.935Z,13.30
2022-09-25T17:31:27.437Z,13.10
2022-09-25T17:36:32.580Z,13.00
2022-09-25T17:41:37.397Z,12.90
2022-09-25T17:46:42.167Z,12.70
2022-09-25T17:51:45.808Z,12.50
2022-09-25T17:56:49.939Z,12.20
2022-09-25T18:01:54.937Z,12.00
2022-09-25T18:07:00.092Z,11.80
2022-09-25T18:12:03.339Z,11.70
2022-09-25T18:17:08.401Z,11.60
2022-09-25T18:22:23.581Z,11.60
2022-09-25T18:32:58.753Z,11.70
2022-09-25T18:38:01.977Z,11.70
2022-09-25T18:43:05.095Z,11.70
2022-09-25T18:48:09.569Z,11.70
2022-09-25T18:53:12.670Z,11.80
2022-09-25T18:58:15.849Z,11.80
2022-09-25T19:03:20.415Z,11.80
2022-09-25T19:08:23.608Z,11.80
2022-09-25T19:13:27.580Z,11.80
2022-09-25T19:18:36.814Z,11.80
2022-09-25T19:23:40.255Z,11.80
2022-09-25T19:28:44.064Z,11.80
2022-09-25T19:33:48.803Z,11.80
2022-09-25T19:38:52.547Z,11.80
2022-09-25T19:43:57.682Z,11.80
2022-09-25T19:49:02.395Z,11.70
2022-09-25T19:54:05.871Z,11.70
2022-09-25T19:59:10.101Z,11.70
2022-09-25T20:04:18.789Z,11.80
2022-09-25T20:09:22.519Z,11.70
2022-09-25T20:14:26.374Z,11.70
2022-09-25T20:19:30.966Z,11.70
2022-09-25T20:24:34.234Z,11.60
2022-09-25T20:29:37.322Z,11.60
2022-09-25T20:34:41.777Z,11.60
2022-09-25T20:39:45.211Z,11.50
2022-09-25T20:44:48.357Z,11.60
2022-09-25T20:49:53.055Z,11.50
2022-09-25T20:54:56.529Z,11.50
2022-09-25T21:00:01.950Z,11.50
2022-09-25T21:05:07.931Z,11.50
2022-09-25T21:10:11.222Z,11.40
2022-09-25T21:15:14.317Z,11.40
2022-09-25T21:20:19.525Z,11.40
2022-09-25T21:25:23.700Z,11.40
2022-09-25T21:30:36.831Z,11.30
2022-09-25T21:35:42.073Z,11.20
2022-09-25T21:40:45.281Z,11.20
2022-09-25T21:45:48.513Z,11.20
2022-09-25T21:50:58.170Z,11.10
2022-09-25T21:56:02.680Z,11.10
2022-09-25T22:01:07.688Z,11.00
2022-09-25T22:06:14.800Z,11.00
2022-09-25T22:11:19.136Z,10.90
2022-09-25T22:16:24.112Z,10.90
2022-09-25T22:21:31.635Z,10.80
2022-09-25T22:26:36.190Z,10.80
2022-09-25T22:31:42.989Z,10.80
2022-09-25T22:36:48.372Z,10.80
2022-09-25T22:41:53.712Z,10.80
2022-09-25T22:46:57.052Z,10.80
2022-09-25T22:52:02.328Z,10.80
2022-09-25T22:57:05.655Z,10.70
2022-09-25T23:02:08.914Z,10.70
2022-09-25T23:07:13.552Z,10.70
2022-09-25T23:12:16.645Z,10.70
2022-09-25T23:17:19.780Z,10.70
2022-09-25T23:22:25.593Z,10.70
2022-09-25T23:27:28.865Z,10.60
2022-09-25T23:32:31.971Z,10.60
2022-09-25T23:37:36.485Z,10.70
2022-09-25T23:42:39.624Z,10.70
2022-09-25T23:47:42.762Z,10.60
2022-09-25T23:52:47.204Z,10.50
2022-09-25T23:57:50.425Z,10.40
